Time;durP1;ratioP1;P1;durP2;ratioP2;P2;SDS_P1;SDS_P2;PMS_P1;PMS_P2;Temp;Humidity;BMP_temperature;BMP_pressure;BME280_temperature;BME280_humidity;BME280_pressure;Samples;Min_cycle;Max_cycle;Signal;HPM_P1;HPM_P2
2021/07/29 00:00:57;;;;;;;7.20;6.50;;;19.40;99.90;;;;;;5015617;28;20231;-58
2021/07/29 00:03:23;;;;;;;6.93;6.23;;;19.30;99.90;;;;;;5015296;28;20212;-59
2021/07/29 00:05:49;;;;;;;6.93;6.23;;;19.30;99.90;;;;;;5015467;28;20355;-60
2021/07/29 00:08:19;;;;;;;6.70;6.10;;;19.20;99.90;;;;;;5015421;28;20192;-59
2021/07/29 00:10:48;;;;;;;7.03;6.33;;;19.30;99.90;;;;;;5010968;28;20201;-56
2021/07/29 00:13:15;;;;;;;7.23;6.53;;;19.30;99.90;;;;;;4995549;28;20673;-56
2021/07/29 00:15:41;;;;;;;7.43;6.33;;;19.30;99.90;;;;;;4996515;28;20181;-61
2021/07/29 00:20:33;;;;;;;7.40;6.70;;;19.30;99.90;;;;;;4996074;28;20165;-61
2021/07/29 00:23:00;;;;;;;7.10;6.40;;;19.40;99.90;;;;;;4995341;28;20212;-57
2021/07/29 00:25:26;;;;;;;6.87;6.17;;;19.40;99.90;;;;;;4995797;28;20205;-60
2021/07/29 00:27:53;;;;;;;7.10;6.40;;;19.40;99.90;;;;;;4996372;28;20235;-57
2021/07/29 00:30:21;;;;;;;6.47;5.80;;;19.40;99.90;;;;;;4995258;28;20206;-58
2021/07/29 00:32:47;;;;;;;10.10;6.57;;;19.40;99.90;;;;;;4995235;28;20219;-53
2021/07/29 00:35:14;;;;;;;7.67;6.70;;;19.40;99.90;;;;;;4996016;28;20188;-57
2021/07/29 00:37:41;;;;;;;7.53;6.57;;;19.40;99.90;;;;;;4995352;28;20176;-56
2021/07/29 00:40:07;;;;;;;7.83;7.07;;;19.30;99.90;;;;;;4996019;28;20185;-60
2021/07/29 00:42:33;;;;;;;7.73;6.93;;;19.30;99.90;;;;;;4994742;28;20203;-59
2021/07/29 00:44:58;;;;;;;8.27;7.47;;;19.30;99.90;;;;;;4995339;28;20177;-57
2021/07/29 00:47:24;;;;;;;8.20;7.40;;;19.20;99.90;;;;;;4995043;28;20273;-60
2021/07/29 00:49:50;;;;;;;9.00;7.70;;;19.20;99.90;;;;;;4995528;28;20209;-54
2021/07/29 00:52:19;;;;;;;9.53;8.30;;;19.10;99.90;;;;;;4994647;28;20248;-55
2021/07/29 00:54:46;;;;;;;8.97;8.07;;;19.10;99.90;;;;;;4995943;28;20212;-60
2021/07/29 00:57:11;;;;;;;8.87;7.50;;;19.10;99.90;;;;;;4995411;28;20177;-61
2021/07/29 00:59:38;;;;;;;8.87;7.97;;;19.00;99.90;;;;;;4995178;28;20260;-61
2021/07/29 01:02:04;;;;;;;8.27;7.50;;;18.80;99.90;;;;;;4994777;28;20212;-59
2021/07/29 01:04:30;;;;;;;8.43;7.63;;;18.70;99.90;;;;;;4995527;28;20197;-56
2021/07/29 01:06:56;;;;;;;7.63;6.93;;;18.70;99.90;;;;;;4995190;28;20228;-56
2021/07/29 01:09:22;;;;;;;8.33;7.30;;;18.70;99.90;;;;;;4994486;28;20200;-56
2021/07/29 01:11:48;;;;;;;7.63;6.83;;;18.70;99.90;;;;;;5007570;28;20181;-58
2021/07/29 01:14:14;;;;;;;7.93;7.23;;;18.50;99.90;;;;;;5014043;28;20223;-61
2021/07/29 01:16:40;;;;;;;7.90;7.10;;;18.50;99.90;;;;;;5014654;28;20184;-60
2021/07/29 01:19:07;;;;;;;7.83;7.13;;;18.50;99.90;;;;;;5014958;28;20192;-54
2021/07/29 01:21:33;;;;;;;8.70;6.73;;;18.40;99.90;;;;;;5014422;28;20175;-53
2021/07/29 01:23:59;;;;;;;7.93;7.00;;;18.50;99.90;;;;;;5013694;28;20699;-56
2021/07/29 01:26:27;;;;;;;7.30;6.60;;;18.50;99.90;;;;;;5014240;28;20187;-59
2021/07/29 01:28:53;;;;;;;7.73;6.93;;;18.50;99.90;;;;;;5014305;28;20263;-60
2021/07/29 01:31:19;;;;;;;6.77;6.10;;;18.60;99.90;;;;;;5014006;28;20185;-57
2021/07/29 01:33:45;;;;;;;6.83;6.20;;;18.60;99.90;;;;;;5014472;28;20211;-61
2021/07/29 01:36:10;;;;;;;6.40;5.80;;;18.50;99.90;;;;;;5014166;28;20177;-60
2021/07/29 01:38:36;;;;;;;6.87;6.17;;;18.40;99.90;;;;;;5014157;28;20184;-54
2021/07/29 01:41:02;;;;;;;7.63;5.80;;;18.40;99.90;;;;;;5014821;28;20226;-59
2021/07/29 01:43:32;;;;;;;6.13;5.53;;;18.30;99.90;;;;;;5013598;28;20236;-60
2021/07/29 01:45:58;;;;;;;6.50;5.90;;;18.40;99.90;;;;;;5014346;28;20217;-56
2021/07/29 01:48:24;;;;;;;8.17;6.17;;;18.20;99.90;;;;;;5014368;28;20183;-59
2021/07/29 01:50:49;;;;;;;7.30;6.00;;;18.00;99.90;;;;;;5013994;28;20186;-59
2021/07/29 01:53:15;;;;;;;6.87;6.03;;;17.80;99.90;;;;;;5013257;28;20227;-59
2021/07/29 01:55:42;;;;;;;6.80;6.10;;;17.90;99.90;;;;;;5013978;28;20179;-59
2021/07/29 01:58:08;;;;;;;5.90;5.40;;;17.80;99.90;;;;;;5016531;28;20226;-60
2021/07/29 02:00:34;;;;;;;5.83;5.33;;;17.90;99.90;;;;;;5018715;28;20238;-58
2021/07/29 02:03:02;;;;;;;5.70;5.03;;;17.90;99.90;;;;;;5018237;28;20248;-53
2021/07/29 02:05:28;;;;;;;5.93;5.30;;;17.90;99.90;;;;;;5017828;28;20632;-57
2021/07/29 02:07:54;;;;;;;5.60;5.10;;;17.80;99.90;;;;;;5017847;28;20213;-60
2021/07/29 02:10:19;;;;;;;5.23;4.83;;;17.80;99.90;;;;;;5016563;28;20181;-58
2021/07/29 02:12:46;;;;;;;5.37;4.90;;;17.80;99.90;;;;;;4997600;28;20213;-55
2021/07/29 02:15:11;;;;;;;4.90;4.37;;;17.70;99.90;;;;;;4997926;28;20254;-59
2021/07/29 02:17:37;;;;;;;4.70;4.30;;;17.70;99.90;;;;;;4998095;28;20208;-55
2021/07/29 02:20:03;;;;;;;4.50;4.10;;;17.70;99.90;;;;;;4997635;28;20234;-60
2021/07/29 02:22:29;;;;;;;4.70;4.07;;;17.70;99.90;;;;;;4996402;28;20284;-61
2021/07/29 02:24:54;;;;;;;4.07;3.77;;;17.60;99.90;;;;;;4997596;28;20263;-60
2021/07/29 02:27:23;;;;;;;4.50;4.10;;;17.60;99.90;;;;;;4998014;28;20235;-56
2021/07/29 02:29:49;;;;;;;4.67;4.27;;;17.60;99.90;;;;;;4997866;28;20209;-53
2021/07/29 02:32:15;;;;;;;4.53;4.13;;;17.60;99.90;;;;;;4997633;28;20238;-54
2021/07/29 02:34:40;;;;;;;5.00;4.47;;;17.60;99.90;;;;;;4997655;28;20314;-59
2021/07/29 02:37:06;;;;;;;4.63;4.23;;;17.60;99.90;;;;;;4998310;28;20603;-57
2021/07/29 02:39:31;;;;;;;4.93;4.53;;;17.60;99.90;;;;;;4997329;28;20197;-60
2021/07/29 02:41:56;;;;;;;5.20;4.70;;;17.70;99.90;;;;;;4991852;28;20186;-59
2021/07/29 02:44:22;;;;;;;4.20;3.80;;;17.70;99.90;;;;;;4978118;28;20543;-54
2021/07/29 02:46:47;;;;;;;5.67;3.70;;;17.80;99.90;;;;;;4978434;28;20257;-60
2021/07/29 02:49:13;;;;;;;5.67;4.30;;;17.80;99.90;;;;;;4978663;28;20634;-60
2021/07/29 02:51:39;;;;;;;16.30;5.00;;;17.70;99.90;;;;;;4977386;28;20221;-60
2021/07/29 02:54:04;;;;;;;4.90;4.50;;;17.60;99.90;;;;;;4977649;28;20566;-57
2021/07/29 02:56:30;;;;;;;4.30;3.90;;;17.60;99.90;;;;;;4978022;28;20181;-60
2021/07/29 02:58:55;;;;;;;4.47;4.07;;;17.70;99.90;;;;;;4977741;28;20213;-57
2021/07/29 03:01:21;;;;;;;4.30;3.90;;;17.70;99.90;;;;;;4977591;28;20174;-55
2021/07/29 03:03:46;;;;;;;3.90;3.60;;;17.70;99.90;;;;;;4978452;28;20257;-55
2021/07/29 03:06:12;;;;;;;4.10;3.20;;;17.70;99.90;;;;;;4978329;28;20221;-59
2021/07/29 03:08:38;;;;;;;4.00;3.60;;;17.70;99.90;;;;;;4977072;28;20211;-57
2021/07/29 03:11:04;;;;;;;4.40;3.90;;;17.70;99.90;;;;;;4992010;28;20490;-60
2021/07/29 03:13:29;;;;;;;4.10;3.20;;;17.70;99.90;;;;;;5016517;28;20707;-55
2021/07/29 03:15:55;;;;;;;3.50;3.20;;;17.70;99.90;;;;;;5016344;28;20170;-59
2021/07/29 03:18:21;;;;;;;4.00;3.70;;;17.70;99.90;;;;;;5016796;28;20657;-58
2021/07/29 03:20:47;;;;;;;4.00;3.60;;;17.70;99.90;;;;;;5016969;28;20171;-57
2021/07/29 03:23:12;;;;;;;4.43;3.67;;;17.70;99.90;;;;;;5016425;28;20200;-56
2021/07/29 03:25:38;;;;;;;3.60;3.30;;;17.70;99.90;;;;;;5016618;28;20663;-59
2021/07/29 03:28:04;;;;;;;4.07;3.67;;;17.60;99.90;;;;;;5016179;28;20246;-55
2021/07/29 03:30:30;;;;;;;4.73;4.10;;;17.60;99.90;;;;;;5016437;28;20263;-60
2021/07/29 03:32:56;;;;;;;4.47;4.07;;;17.50;99.90;;;;;;5016167;28;20697;-60
2021/07/29 03:35:21;;;;;;;4.50;4.10;;;17.40;99.90;;;;;;5016074;28;20164;-56
2021/07/29 03:37:47;;;;;;;4.63;4.07;;;17.30;99.90;;;;;;5016519;28;20236;-60
2021/07/29 03:40:12;;;;;;;4.40;4.00;;;17.30;99.90;;;;;;5015746;28;20217;-58
2021/07/29 03:42:38;;;;;;;3.90;3.60;;;17.30;99.90;;;;;;5016223;28;20216;-53
2021/07/29 03:45:04;;;;;;;4.10;3.70;;;17.30;99.90;;;;;;5015866;28;20255;-57
2021/07/29 03:47:30;;;;;;;4.27;3.87;;;17.40;99.90;;;;;;5016189;28;20180;-57
2021/07/29 03:49:55;;;;;;;3.40;3.20;;;17.50;99.90;;;;;;5016062;28;20243;-61
2021/07/29 03:52:21;;;;;;;4.00;3.70;;;17.50;99.90;;;;;;5015677;28;20287;-56
2021/07/29 03:54:51;;;;;;;3.70;3.40;;;17.50;99.90;;;;;;5015252;28;20193;-60
2021/07/29 03:57:18;;;;;;;4.93;3.90;;;17.60;99.90;;;;;;5016127;28;20633;-59
2021/07/29 03:59:44;;;;;;;4.73;3.40;;;17.50;99.90;;;;;;5015548;28;20615;-54
2021/07/29 04:02:10;;;;;;;5.37;4.20;;;17.50;99.90;;;;;;5015819;28;20180;-56
2021/07/29 04:04:39;;;;;;;4.37;3.97;;;17.40;99.90;;;;;;5016038;28;20192;-59
2021/07/29 04:07:06;;;;;;;4.67;4.27;;;17.50;99.90;;;;;;5015534;28;20179;-58
2021/07/29 04:09:32;;;;;;;5.83;4.83;;;17.50;99.90;;;;;;5015110;28;20204;-59
2021/07/29 04:11:58;;;;;;;5.33;4.83;;;17.50;99.90;;;;;;5000822;28;20184;-54
2021/07/29 04:14:23;;;;;;;5.27;4.77;;;17.50;99.90;;;;;;4996151;28;20189;-55
2021/07/29 04:16:52;;;;;;;5.23;4.73;;;17.60;99.90;;;;;;4996386;28;20176;-59
2021/07/29 04:19:18;;;;;;;4.37;3.97;;;17.60;99.90;;;;;;4994974;28;20186;-59
2021/07/29 04:21:43;;;;;;;8.77;4.10;;;17.60;99.90;;;;;;4995262;28;20177;-57
2021/07/29 04:24:09;;;;;;;4.00;3.70;;;17.60;99.90;;;;;;4996813;28;20189;-60
2021/07/29 04:26:34;;;;;;;3.80;3.50;;;17.60;99.90;;;;;;4996035;28;20183;-54
2021/07/29 04:29:00;;;;;;;4.77;3.60;;;17.60;99.90;;;;;;4995779;28;20174;-58
2021/07/29 04:31:25;;;;;;;4.80;4.40;;;17.70;99.90;;;;;;4994552;28;20178;-56
2021/07/29 04:33:52;;;;;;;4.97;4.40;;;17.70;99.90;;;;;;4995316;28;20211;-54
2021/07/29 04:36:19;;;;;;;4.97;4.07;;;17.80;99.90;;;;;;4995383;28;20171;-54
2021/07/29 04:38:44;;;;;;;4.17;3.80;;;18.00;99.90;;;;;;4989879;28;20177;-58
2021/07/29 04:41:10;;;;;;;4.40;4.00;;;18.00;99.90;;;;;;4998978;28;20252;-59
2021/07/29 04:43:36;;;;;;;4.30;3.90;;;18.00;99.90;;;;;;5014723;28;20279;-59
2021/07/29 04:46:05;;;;;;;4.20;3.80;;;18.10;99.90;;;;;;4996593;28;20671;-54
2021/07/29 04:48:31;;;;;;;5.57;3.80;;;18.20;99.90;;;;;;4995082;28;20174;-55
2021/07/29 04:51:04;;;;;;;4.80;3.80;;;18.30;99.90;;;;;;4993349;28;20188;-59
2021/07/29 04:53:31;;;;;;;7.50;3.83;;;18.30;99.90;;;;;;4981012;28;20564;-58
2021/07/29 04:55:57;;;;;;;4.27;3.87;;;18.30;99.90;;;;;;4988643;28;20185;-59
2021/07/29 04:58:22;;;;;;;4.10;3.80;;;18.30;99.90;;;;;;4988643;28;20169;-56
2021/07/29 05:00:48;;;;;;;4.07;3.77;;;18.40;99.90;;;;;;4990685;28;20186;-57
2021/07/29 05:03:13;;;;;;;4.40;4.03;;;18.50;99.90;;;;;;4988856;28;20596;-57
2021/07/29 05:05:39;;;;;;;18.73;4.57;;;18.60;99.90;;;;;;4993553;28;20229;-60
2021/07/29 05:08:05;;;;;;;4.27;3.97;;;18.60;99.90;;;;;;4993235;28;20193;-61
2021/07/29 05:10:30;;;;;;;3.80;3.50;;;18.60;99.90;;;;;;4992550;28;20247;-61
2021/07/29 05:12:56;;;;;;;4.73;4.27;;;18.60;99.90;;;;;;4993987;28;20220;-57
2021/07/29 05:15:22;;;;;;;4.40;4.00;;;18.70;99.90;;;;;;4994827;28;20181;-58
2021/07/29 05:17:54;;;;;;;5.00;4.50;;;18.70;99.90;;;;;;4994312;28;20233;-57
2021/07/29 05:20:20;;;;;;;4.63;4.23;;;18.80;99.90;;;;;;4989974;28;20182;-56
2021/07/29 05:22:46;;;;;;;4.33;4.00;;;18.90;99.90;;;;;;4986199;28;20219;-57
2021/07/29 05:25:11;;;;;;;4.90;4.50;;;18.90;99.90;;;;;;4994203;28;20596;-56
2021/07/29 05:27:37;;;;;;;4.37;4.00;;;18.90;99.90;;;;;;4996376;28;20252;-61
2021/07/29 05:30:03;;;;;;;4.67;4.27;;;18.90;99.90;;;;;;4999318;28;20211;-58
2021/07/29 05:32:28;;;;;;;4.87;4.47;;;18.90;99.90;;;;;;5012164;28;20208;-61
2021/07/29 05:34:54;;;;;;;4.10;3.80;;;18.90;99.90;;;;;;5001529;28;20669;-57
2021/07/29 05:37:19;;;;;;;4.50;4.10;;;18.90;99.90;;;;;;5001794;28;20201;-57
2021/07/29 05:39:45;;;;;;;4.20;3.80;;;19.10;99.90;;;;;;5004272;28;20247;-60
2021/07/29 05:42:10;;;;;;;6.10;5.17;;;19.20;99.90;;;;;;4975108;28;20182;-55
2021/07/29 05:44:36;;;;;;;6.30;4.33;;;19.10;99.90;;;;;;4987061;28;20200;-60
2021/07/29 05:47:02;;;;;;;5.00;4.60;;;19.30;99.90;;;;;;4986804;28;20177;-60
2021/07/29 05:49:28;;;;;;;5.30;4.80;;;19.40;99.90;;;;;;5002579;28;20200;-62
2021/07/29 05:51:53;;;;;;;5.93;5.33;;;19.60;99.90;;;;;;5013757;28;20172;-59
2021/07/29 05:54:19;;;;;;;5.87;5.27;;;19.60;99.90;;;;;;5013767;28;20216;-54
2021/07/29 05:56:46;;;;;;;6.27;5.67;;;19.40;99.90;;;;;;4991438;28;20175;-54
2021/07/29 05:59:11;;;;;;;7.47;5.93;;;19.30;99.90;;;;;;4991533;28;20177;-58
2021/07/29 06:01:37;;;;;;;6.03;5.53;;;19.20;99.90;;;;;;5013755;28;20164;-58
2021/07/29 06:04:03;;;;;;;6.47;5.87;;;19.30;99.90;;;;;;5006043;28;20293;-52
2021/07/29 06:06:28;;;;;;;8.03;6.87;;;19.60;99.90;;;;;;4994181;28;20205;-56
2021/07/29 06:08:58;;;;;;;6.80;6.20;;;19.70;99.90;;;;;;4994964;28;20185;-59
2021/07/29 06:11:24;;;;;;;6.90;6.30;;;19.60;99.90;;;;;;4977681;28;20241;-57
2021/07/29 06:13:50;;;;;;;6.63;6.03;;;19.40;99.90;;;;;;5013869;28;20264;-59
2021/07/29 06:16:17;;;;;;;6.50;5.90;;;19.40;99.90;;;;;;5007104;28;20270;-59
2021/07/29 06:18:52;;;;;;;6.07;5.33;;;19.50;99.90;;;;;;4994619;28;20183;-53
2021/07/29 06:21:18;;;;;;;6.50;5.90;;;19.70;99.90;;;;;;4994454;28;20188;-58
2021/07/29 06:23:43;;;;;;;5.90;5.40;;;19.80;99.90;;;;;;4990957;28;20535;-59
2021/07/29 06:26:10;;;;;;;5.90;5.40;;;20.00;99.90;;;;;;4995382;28;20513;-53
2021/07/29 06:28:36;;;;;;;6.20;5.70;;;20.20;99.90;;;;;;5013810;28;20184;-55
2021/07/29 06:31:02;;;;;;;6.23;5.63;;;20.40;99.90;;;;;;4996698;28;20185;-53
2021/07/29 06:33:27;;;;;;;6.57;5.63;;;20.60;99.90;;;;;;4980495;28;20226;-52
2021/07/29 06:35:53;;;;;;;5.80;5.30;;;20.70;99.90;;;;;;5003206;28;20187;-56
2021/07/29 06:38:18;;;;;;;5.70;5.20;;;20.60;99.90;;;;;;5013824;28;20196;-54
2021/07/29 06:40:43;;;;;;;5.23;4.63;;;20.40;99.90;;;;;;5011255;28;20181;-57
2021/07/29 06:43:09;;;;;;;4.70;4.30;;;20.60;99.90;;;;;;5012236;28;20593;-53
2021/07/29 06:45:35;;;;;;;5.17;4.53;;;20.90;99.90;;;;;;5015151;28;20173;-53
2021/07/29 06:48:00;;;;;;;5.50;5.00;;;21.10;99.90;;;;;;5015303;28;20268;-53
2021/07/29 06:50:26;;;;;;;5.70;4.85;;;21.30;99.90;;;;;;5013530;28;20188;-57
2021/07/29 06:52:51;;;;;;;5.30;4.80;;;21.10;99.90;;;;;;5014578;28;20209;-58
2021/07/29 06:55:17;;;;;;;6.10;4.93;;;21.00;99.90;;;;;;5016166;28;20169;-53
2021/07/29 06:57:42;;;;;;;5.60;5.10;;;21.00;99.90;;;;;;5017908;28;20180;-58
2021/07/29 07:00:08;;;;;;;5.77;5.27;;;20.60;99.90;;;;;;5016892;28;20199;-52
2021/07/29 07:02:34;;;;;;;7.85;6.90;;;20.60;99.90;;;;;;5016750;28;20180;-55
2021/07/29 07:04:59;;;;;;;6.30;5.70;;;20.70;99.90;;;;;;5016582;28;20181;-52
2021/07/29 07:07:25;;;;;;;6.72;6.05;;;20.70;99.90;;;;;;5017258;28;20700;-55
2021/07/29 07:09:50;;;;;;;6.40;5.80;;;20.80;99.90;;;;;;5016522;28;20717;-55
2021/07/29 07:12:16;;;;;;;6.87;6.20;;;20.90;99.90;;;;;;5016428;28;20192;-52
2021/07/29 07:14:41;;;;;;;5.90;5.30;;;21.10;99.90;;;;;;5014493;28;20206;-58
2021/07/29 07:17:07;;;;;;;7.03;6.30;;;21.20;99.90;;;;;;4997469;28;20289;-55
2021/07/29 07:19:33;;;;;;;7.40;6.70;;;21.00;99.90;;;;;;4996998;28;20228;-55
2021/07/29 07:22:00;;;;;;;8.40;6.68;;;20.90;99.90;;;;;;4996732;28;20255;-53
2021/07/29 07:24:26;;;;;;;7.63;6.80;;;20.80;99.90;;;;;;4996515;28;20197;-56
2021/07/29 07:26:51;;;;;;;5.70;5.20;;;20.90;99.90;;;;;;4997558;28;20172;-54
2021/07/29 07:29:17;;;;;;;6.47;5.88;;;21.10;99.90;;;;;;4996570;28;20229;-55
2021/07/29 07:31:42;;;;;;;5.47;4.97;;;21.40;99.90;;;;;;4996728;28;20260;-58
2021/07/29 07:34:08;;;;;;;6.90;5.32;;;21.60;99.90;;;;;;4996878;28;20214;-53
2021/07/29 07:36:33;;;;;;;5.43;4.93;;;22.00;99.90;;;;;;4996604;28;20194;-57
2021/07/29 07:38:59;;;;;;;7.38;6.68;;;21.90;99.90;;;;;;4996920;28;20247;-56
2021/07/29 07:41:25;;;;;;;6.53;5.93;;;21.80;99.90;;;;;;4996071;28;20198;-55
2021/07/29 07:43:50;;;;;;;7.32;6.63;;;21.60;99.90;;;;;;4996756;28;20541;-54
2021/07/29 07:46:16;;;;;;;7.85;7.15;;;21.20;99.90;;;;;;4996654;28;20203;-54
2021/07/29 07:48:41;;;;;;;7.47;6.30;;;21.20;99.90;;;;;;4996925;28;20171;-55
2021/07/29 07:51:07;;;;;;;7.00;6.30;;;21.30;99.90;;;;;;4996775;28;20172;-57
2021/07/29 07:53:32;;;;;;;8.10;6.50;;;21.50;99.90;;;;;;4996131;28;20233;-55
2021/07/29 07:56:02;;;;;;;6.82;6.03;;;21.50;99.90;;;;;;4995743;28;20266;-56
2021/07/29 07:58:28;;;;;;;6.82;6.20;;;21.60;99.90;;;;;;4996132;28;20526;-56
2021/07/29 08:00:53;;;;;;;7.22;6.53;;;21.80;99.90;;;;;;4996828;28;20617;-56
2021/07/29 08:03:19;;;;;;;6.68;6.05;;;21.80;99.90;;;;;;4996012;28;20203;-54
2021/07/29 08:05:45;;;;;;;6.25;5.65;;;21.90;99.90;;;;;;4996145;28;20187;-59
2021/07/29 08:08:10;;;;;;;5.90;5.18;;;22.10;99.90;;;;;;4995974;28;20211;-52
2021/07/29 08:10:36;;;;;;;8.68;6.30;;;22.00;99.90;;;;;;4995647;28;20181;-54
2021/07/29 08:13:03;;;;;;;5.50;5.00;;;21.90;99.90;;;;;;4995332;28;20216;-52
2021/07/29 08:15:28;;;;;;;6.30;5.70;;;22.10;99.90;;;;;;4995857;28;20180;-52
2021/07/29 08:17:55;;;;;;;7.13;6.00;;;22.00;99.90;;;;;;4996118;28;20260;-56
2021/07/29 08:20:24;;;;;;;6.38;5.65;;;21.90;99.90;;;;;;4995862;28;20274;-56
2021/07/29 08:22:50;;;;;;;6.03;5.53;;;22.00;99.90;;;;;;4996052;28;20199;-56
2021/07/29 08:25:19;;;;;;;5.70;4.45;;;21.70;99.90;;;;;;4995697;28;20183;-52
2021/07/29 08:27:45;;;;;;;4.55;4.13;;;21.80;99.90;;;;;;4995655;28;20172;-55
2021/07/29 08:30:11;;;;;;;5.55;5.05;;;22.10;99.90;;;;;;4995628;28;20180;-57
2021/07/29 08:32:36;;;;;;;4.63;4.22;;;22.10;99.90;;;;;;4995228;28;20255;-53
2021/07/29 08:35:02;;;;;;;4.90;4.40;;;22.20;99.90;;;;;;4995987;28;20169;-52
2021/07/29 08:37:27;;;;;;;5.43;4.93;;;22.00;99.90;;;;;;4995470;28;20304;-53
2021/07/29 08:39:54;;;;;;;6.00;5.50;;;22.00;99.90;;;;;;4995021;28;20235;-53
2021/07/29 08:42:20;;;;;;;4.88;4.47;;;22.00;99.90;;;;;;4995324;28;20181;-53
2021/07/29 08:44:45;;;;;;;4.47;4.07;;;22.20;99.90;;;;;;4995555;28;20328;-55
2021/07/29 08:47:14;;;;;;;4.70;4.30;;;22.60;99.90;;;;;;4995140;28;20190;-56
2021/07/29 08:49:41;;;;;;;5.45;4.15;;;22.90;99.90;;;;;;4996083;28;20188;-58
2021/07/29 08:52:07;;;;;;;4.95;4.53;;;22.90;99.90;;;;;;4995109;28;20193;-56
2021/07/29 08:54:33;;;;;;;4.85;4.35;;;23.00;99.90;;;;;;4995010;28;20662;-57
2021/07/29 08:56:59;;;;;;;4.72;4.32;;;23.00;99.90;;;;;;4994141;28;20208;-58
2021/07/29 08:59:24;;;;;;;5.10;4.40;;;23.00;99.90;;;;;;4995424;28;20673;-57
2021/07/29 09:01:53;;;;;;;5.35;4.43;;;23.10;99.90;;;;;;4994932;28;20196;-53
2021/07/29 09:04:19;;;;;;;5.35;4.95;;;23.10;99.90;;;;;;4994479;28;20219;-53
2021/07/29 09:06:59;;;;;;;4.50;4.10;;;23.20;99.90;;;;;;4994999;28;20176;-54
2021/07/29 09:09:55;;;;;;;4.40;4.00;;;23.20;99.90;;;;;;4994783;28;20193;-57
2021/07/29 09:12:23;;;;;;;5.10;3.88;;;23.50;99.90;;;;;;4934517;29;20677;-59
2021/07/29 09:14:50;;;;;;;4.28;3.88;;;23.50;99.90;;;;;;4935745;29;20216;-54
2021/07/29 09:17:18;;;;;;;4.20;3.90;;;23.60;99.90;;;;;;4934811;29;20188;-52
2021/07/29 09:19:48;;;;;;;4.10;3.70;;;23.60;99.90;;;;;;4934495;29;20222;-56
2021/07/29 09:22:25;;;;;;;4.60;3.83;;;23.40;99.90;;;;;;4934918;29;20211;-55
2021/07/29 09:25:12;;;;;;;4.00;3.60;;;23.50;99.90;;;;;;4934740;29;20172;-59
2021/07/29 09:27:37;;;;;;;3.53;3.30;;;23.80;99.90;;;;;;4934813;29;20180;-58
2021/07/29 09:30:12;;;;;;;3.85;3.42;;;23.80;99.90;;;;;;4934579;29;20190;-59
2021/07/29 09:33:04;;;;;;;3.88;3.53;;;24.20;99.90;;;;;;4926887;29;20210;-51
2021/07/29 09:35:45;;;;;;;4.50;3.78;;;24.70;99.90;;;;;;4933761;29;20199;-52
2021/07/29 09:38:31;;;;;;;5.50;3.38;;;25.00;99.90;;;;;;4934454;29;20175;-57
2021/07/29 09:41:01;;;;;;;3.70;3.38;;;25.30;99.90;;;;;;4933428;29;20207;-52
2021/07/29 09:43:29;;;;;;;3.97;3.10;;;25.30;99.90;;;;;;4934232;29;20210;-55
2021/07/29 09:45:57;;;;;;;3.33;3.03;;;25.00;99.90;;;;;;4918398;29;20179;-60
2021/07/29 09:48:23;;;;;;;3.53;3.22;;;25.20;99.90;;;;;;4956009;28;20189;-57
2021/07/29 09:50:58;;;;;;;2.90;2.70;;;25.00;99.90;;;;;;4994207;28;20213;-55
2021/07/29 09:53:30;;;;;;;4.03;3.00;;;25.30;99.90;;;;;;4994061;28;20339;-53
2021/07/29 09:55:56;;;;;;;3.55;3.10;;;25.60;99.90;;;;;;4994198;28;20245;-53
2021/07/29 09:58:22;;;;;;;3.33;3.03;;;25.40;99.90;;;;;;4994428;28;20177;-59
2021/07/29 10:00:47;;;;;;;3.47;3.17;;;25.20;99.90;;;;;;4993944;28;20570;-59
2021/07/29 10:03:15;;;;;;;3.47;3.17;;;25.40;99.90;;;;;;4993951;28;20187;-58
2021/07/29 10:05:58;;;;;;;3.60;3.30;;;25.60;99.90;;;;;;4994389;28;20177;-55
2021/07/29 10:08:43;;;;;;;4.03;3.60;;;25.60;99.90;;;;;;4994057;28;20247;-51
2021/07/29 10:11:15;;;;;;;3.78;3.10;;;25.80;99.90;;;;;;4994283;28;20345;-56
2021/07/29 10:13:41;;;;;;;3.25;3.03;;;26.00;99.90;;;;;;4993893;28;20221;-52
2021/07/29 10:16:09;;;;;;;3.88;3.08;;;25.90;99.90;;;;;;4994095;28;20696;-54
2021/07/29 10:18:55;;;;;;;3.47;3.17;;;25.80;99.90;;;;;;4996083;28;20183;-58
2021/07/29 10:21:22;;;;;;;3.63;2.83;;;26.10;99.90;;;;;;4998236;28;20220;-60
2021/07/29 10:23:53;;;;;;;3.95;3.20;;;26.10;99.90;;;;;;4997512;28;20205;-60
2021/07/29 10:26:19;;;;;;;3.85;3.40;;;26.10;99.90;;;;;;4997900;28;20201;-55
2021/07/29 10:28:44;;;;;;;4.50;3.10;;;26.10;99.90;;;;;;4998079;28;20184;-56
2021/07/29 10:31:12;;;;;;;3.70;3.40;;;26.30;99.90;;;;;;4997656;28;20173;-53
2021/07/29 10:33:38;;;;;;;3.33;3.03;;;26.50;99.90;;;;;;4997805;28;20268;-55
2021/07/29 10:36:05;;;;;;;3.33;3.10;;;26.60;99.90;;;;;;4997756;28;20268;-56
2021/07/29 10:38:39;;;;;;;3.35;3.05;;;26.80;99.90;;;;;;4996966;28;20189;-54
2021/07/29 10:41:34;;;;;;;3.53;3.08;;;27.10;99.90;;;;;;4997120;28;20173;-51
2021/07/29 10:44:03;;;;;;;3.00;2.80;;;27.50;99.90;;;;;;4997596;28;20204;-52
2021/07/29 10:46:53;;;;;;;3.35;3.10;;;27.60;99.90;;;;;;4998149;28;20190;-57
2021/07/29 10:49:18;;;;;;;3.20;2.90;;;27.70;99.90;;;;;;4997118;28;20253;-56
2021/07/29 10:52:07;;;;;;;4.43;3.75;;;27.80;99.90;;;;;;4997401;28;20165;-59
2021/07/29 10:54:35;;;;;;;4.28;3.15;;;28.00;99.90;;;;;;4997021;28;20204;-59
2021/07/29 10:57:02;;;;;;;2.80;2.60;;;27.90;99.90;;;;;;4998176;28;20223;-58
2021/07/29 10:59:28;;;;;;;3.90;3.20;;;27.60;99.90;;;;;;4996905;28;20224;-58
2021/07/29 11:01:54;;;;;;;4.80;3.17;;;27.40;99.90;;;;;;4997085;28;20637;-53
2021/07/29 11:04:27;;;;;;;3.65;3.33;;;27.40;99.90;;;;;;4996944;28;20190;-53
2021/07/29 11:07:02;;;;;;;4.55;3.00;;;27.50;99.90;;;;;;4997127;28;20173;-52
2021/07/29 11:09:32;;;;;;;3.20;3.00;;;27.20;99.90;;;;;;4996736;28;20273;-58
2021/07/29 11:11:59;;;;;;;3.90;3.30;;;27.10;99.90;;;;;;4996780;28;20173;-52
2021/07/29 11:14:30;;;;;;;3.40;3.10;;;27.10;99.90;;;;;;4996968;28;20213;-57
2021/07/29 11:17:01;;;;;;;3.50;3.20;;;27.10;99.90;;;;;;4996738;28;20256;-57
2021/07/29 11:19:27;;;;;;;2.72;2.53;;;27.20;99.90;;;;;;4997452;28;20718;-59
2021/07/29 11:22:06;;;;;;;3.63;3.05;;;27.50;99.90;;;;;;4996505;28;20276;-55
2021/07/29 11:24:32;;;;;;;3.10;2.78;;;27.80;99.90;;;;;;4996680;28;20669;-57
2021/07/29 11:27:00;;;;;;;3.60;3.20;;;27.50;99.90;;;;;;4996229;28;20187;-59
2021/07/29 11:29:25;;;;;;;3.60;3.30;;;27.50;99.90;;;;;;4997016;28;20177;-59
2021/07/29 11:31:57;;;;;;;3.53;3.22;;;27.60;99.90;;;;;;4996468;28;20251;-59
2021/07/29 11:34:33;;;;;;;3.70;3.17;;;27.70;99.90;;;;;;4997101;28;20288;-51
2021/07/29 11:36:59;;;;;;;2.90;2.67;;;27.80;99.90;;;;;;4996633;28;20252;-58
2021/07/29 11:39:34;;;;;;;3.30;3.10;;;27.90;99.90;;;;;;4996487;28;20581;-55
2021/07/29 11:41:59;;;;;;;3.30;3.00;;;28.10;99.90;;;;;;4996333;28;20681;-56
2021/07/29 11:44:43;;;;;;;3.30;3.00;;;27.80;99.90;;;;;;4996274;28;20239;-60
2021/07/29 11:47:09;;;;;;;2.78;2.58;;;27.10;99.90;;;;;;4996929;28;20272;-56
2021/07/29 11:49:45;;;;;;;3.08;2.78;;;26.70;99.90;;;;;;4996218;28;20216;-53
2021/07/29 11:52:11;;;;;;;3.67;3.35;;;26.50;99.90;;;;;;4996074;28;20181;-58
2021/07/29 11:54:37;;;;;;;3.60;3.30;;;26.30;99.90;;;;;;4996293;28;20231;-59
2021/07/29 11:57:04;;;;;;;3.35;3.15;;;26.50;99.90;;;;;;4996377;28;20177;-59
2021/07/29 11:59:44;;;;;;;3.70;2.75;;;26.80;99.90;;;;;;4996066;28;20173;-57
2021/07/29 12:02:10;;;;;;;3.08;2.88;;;27.30;99.90;;;;;;4996491;28;20162;-60
2021/07/29 12:04:41;;;;;;;3.10;2.80;;;27.50;99.90;;;;;;4995765;28;20197;-60
2021/07/29 12:07:08;;;;;;;3.33;3.10;;;27.40;99.90;;;;;;4996690;28;20165;-60
2021/07/29 12:09:35;;;;;;;4.97;3.40;;;27.20;99.90;;;;;;4995751;28;20232;-57
2021/07/29 12:12:02;;;;;;;3.30;3.00;;;27.30;99.90;;;;;;4996101;28;20240;-55
2021/07/29 12:14:28;;;;;;;2.90;2.70;;;27.60;99.90;;;;;;4995888;28;20216;-52
2021/07/29 12:16:55;;;;;;;3.85;3.20;;;27.70;99.90;;;;;;4996089;28;20165;-57
2021/07/29 12:19:21;;;;;;;3.60;3.30;;;27.60;99.90;;;;;;4995560;28;20189;-60
2021/07/29 12:21:49;;;;;;;3.10;2.90;;;27.70;99.90;;;;;;4995736;28;20260;-59
2021/07/29 12:24:15;;;;;;;3.17;2.97;;;27.80;99.90;;;;;;4995594;28;20193;-58
2021/07/29 12:26:41;;;;;;;4.35;3.15;;;28.00;99.90;;;;;;4995621;28;20646;-58
2021/07/29 12:29:08;;;;;;;3.30;3.00;;;27.90;99.90;;;;;;4995868;28;20188;-60
2021/07/29 12:31:33;;;;;;;3.28;3.03;;;27.30;99.90;;;;;;4995114;28;20606;-54
2021/07/29 12:34:01;;;;;;;3.63;3.33;;;27.10;99.90;;;;;;4995337;28;20757;-57
2021/07/29 12:36:46;;;;;;;3.30;2.80;;;27.30;99.90;;;;;;4995762;28;20165;-59
2021/07/29 12:39:13;;;;;;;3.40;3.10;;;27.30;99.90;;;;;;4996105;28;20184;-58
2021/07/29 12:41:41;;;;;;;3.20;3.00;;;27.20;99.90;;;;;;4994546;28;20189;-57
2021/07/29 12:44:17;;;;;;;3.40;3.10;;;27.10;99.90;;;;;;4995908;28;20605;-59
2021/07/29 12:46:44;;;;;;;3.42;3.13;;;27.20;99.90;;;;;;4995390;28;20173;-58
2021/07/29 12:49:11;;;;;;;3.50;3.20;;;27.60;99.90;;;;;;4994285;28;20189;-59